Briones, California
Current Conditions -  °F | °C
As of 3:53 PM on Saturday 25 Oct 2014 (Local Time) from KCCR Reporting Station
Broken Clouds Broken Clouds  
Wind Chill: 69°   Ceiling: 4300
Heat Index: 69°   Visibility: 10mi
Dew Point: 53°   Wind: 14mph
Humidity: 57%   Direction: 240°WSW
Pressure: 30.06"   Gusts: 24mph
Location:  37.9788°N, 122.164°W
Report Text: KCCR 252253Z AUTO 24012G21KT 10SM BKN043 21/12 A3006 RMK AO2 SLP164 T02060117 TSNO
Loading
Personal Weather Stations






























Interactive Weather Map
Tropical Storm Tracking
New forecast layout! Learn more

10-Day Weather Forecast

Advertisements
Track Severe Weather on mobile